Pagrindinis puslapis
METAR-TAF:

METAR-TAF

Oro uostai :

Notodden, Norvegija

platuma: 59-34N, ilguma: 009-13E, Aukštis: 19 m

Dabartinis oras

Ataskaita buvo paskelbta 49 minutes, ne 12:50 UTC
Ramus vėjas
Temperatūra 7°C
Drėgmė 49%
Slėgis 1002 hPa
Matomumas 10 km arba daugiau
nėra debesų žemiau 1500 m ir nėra kamuolinių lietaus debesų

METAR: ENNO 191250Z 00000KT CAVOK 07/M03 Q1002

Laikas: 14:39 (13:39 UTC)

Prognozė

Ataskaita buvo paskelbta 2 valandos ir 39 minutes, ne 11:00 UTC
Prognozė galioja nuo 19 metu 12 UTC su 19 metu 18 UTC
Vėjas 3 kt nuo kintamojo kryptimis
Matomumas 10 km arba daugiau
nėra debesų žemiau 1500 m ir nėra kamuolinių lietaus debesų

TAF: ENNO 191100Z 1912/1918 VRB03KT CAVOK

Orai ataskaitas ir orų prognozės (METAR, TAF).

turimą stotys yra geltonos ir raudonos taškus žemėlapyje.

Perkelti pele per norėdami pamatyti stoties vardą.

Tada spustelėkite, norėdami matyti oro stebėjimo ir prognozės.

Norėdami pakeisti žemėlapį: spustelėkite ant žalios mygtukų su juodo kryžiaus žemyn,; žalią mygtuką su brūkšneliu, jei norite nutolinti; arba žalių rodyklių gretimoms žemėlapius.


METAR-TAF: